sensor_id;sensor_type;location;lat;lon;timestamp;pressure;altitude;pressure_sealevel;temperature;humidity
50702;BME280;36670;50.094;8.496;2024-02-23T00:00:24;97991.66;;;10.71;60.35
50702;BME280;36670;50.094;8.496;2024-02-23T00:02:49;98001.56;;;10.86;60.04
50702;BME280;36670;50.094;8.496;2024-02-23T00:05:14;98008.47;;;10.98;60.08
50702;BME280;36670;50.094;8.496;2024-02-23T00:07:40;98004.91;;;10.97;60.02
50702;BME280;36670;50.094;8.496;2024-02-23T00:10:06;98001.69;;;10.67;60.72
50702;BME280;36670;50.094;8.496;2024-02-23T00:12:32;98007.75;;;10.55;60.44
50702;BME280;36670;50.094;8.496;2024-02-23T00:14:57;98011.72;;;10.49;60.50
50702;BME280;36670;50.094;8.496;2024-02-23T00:17:22;98004.59;;;10.48;60.31
50702;BME280;36670;50.094;8.496;2024-02-23T00:19:48;98012.34;;;10.46;59.91
50702;BME280;36670;50.094;8.496;2024-02-23T00:22:14;98020.03;;;10.35;60.22
50702;BME280;36670;50.094;8.496;2024-02-23T00:24:40;98029.03;;;10.55;59.32
50702;BME280;36670;50.094;8.496;2024-02-23T00:27:06;98026.97;;;10.61;59.88
50702;BME280;36670;50.094;8.496;2024-02-23T00:29:31;98037.47;;;10.31;59.42
50702;BME280;36670;50.094;8.496;2024-02-23T00:31:57;98043.72;;;10.36;58.98
50702;BME280;36670;50.094;8.496;2024-02-23T00:34:22;98056.72;;;10.36;58.72
50702;BME280;36670;50.094;8.496;2024-02-23T00:36:48;98065.38;;;10.43;58.57
50702;BME280;36670;50.094;8.496;2024-02-23T00:39:14;98072.66;;;10.53;58.71
50702;BME280;36670;50.094;8.496;2024-02-23T00:41:39;98073.56;;;10.34;58.54
50702;BME280;36670;50.094;8.496;2024-02-23T00:44:05;98090.13;;;10.34;58.21
50702;BME280;36670;50.094;8.496;2024-02-23T00:46:30;98092.00;;;10.34;57.34
50702;BME280;36670;50.094;8.496;2024-02-23T00:48:59;98105.91;;;10.29;57.82
50702;BME280;36670;50.094;8.496;2024-02-23T00:51:25;98093.91;;;10.38;57.89
50702;BME280;36670;50.094;8.496;2024-02-23T00:53:50;98095.34;;;10.36;56.76
50702;BME280;36670;50.094;8.496;2024-02-23T00:56:16;98094.63;;;10.44;57.10
50702;BME280;36670;50.094;8.496;2024-02-23T00:58:41;98100.56;;;10.18;56.85
50702;BME280;36670;50.094;8.496;2024-02-23T01:01:07;98102.13;;;10.11;57.92
50702;BME280;36670;50.094;8.496;2024-02-23T01:03:33;98101.28;;;10.24;58.19
50702;BME280;36670;50.094;8.496;2024-02-23T01:05:58;98108.22;;;10.07;58.51
50702;BME280;36670;50.094;8.496;2024-02-23T01:08:24;98119.53;;;10.06;58.24
50702;BME280;36670;50.094;8.496;2024-02-23T01:10:49;98119.84;;;10.04;59.01
50702;BME280;36670;50.094;8.496;2024-02-23T01:13:15;98109.34;;;9.73;58.36
50702;BME280;36670;50.094;8.496;2024-02-23T01:15:41;98124.13;;;9.45;59.19
50702;BME280;36670;50.094;8.496;2024-02-23T01:18:09;98116.53;;;9.55;59.77
50702;BME280;36670;50.094;8.496;2024-02-23T01:20:34;98115.00;;;9.49;59.42
50702;BME280;36670;50.094;8.496;2024-02-23T01:23:00;98125.75;;;9.65;58.74
50702;BME280;36670;50.094;8.496;2024-02-23T01:25:26;98138.06;;;9.53;58.86
50702;BME280;36670;50.094;8.496;2024-02-23T01:27:51;98148.91;;;9.45;59.56
50702;BME280;36670;50.094;8.496;2024-02-23T01:30:16;98159.84;;;9.31;59.97
50702;BME280;36670;50.094;8.496;2024-02-23T01:32:42;98157.84;;;9.55;58.97
50702;BME280;36670;50.094;8.496;2024-02-23T01:35:08;98162.84;;;9.34;59.51
50702;BME280;36670;50.094;8.496;2024-02-23T01:37:34;98169.00;;;9.64;59.87
50702;BME280;36670;50.094;8.496;2024-02-23T01:39:59;98181.66;;;9.46;60.11
50702;BME280;36670;50.094;8.496;2024-02-23T01:42:25;98171.72;;;9.31;59.75
50702;BME280;36670;50.094;8.496;2024-02-23T01:44:51;98178.44;;;9.01;59.79
50702;BME280;36670;50.094;8.496;2024-02-23T01:47:17;98180.25;;;9.11;59.35
50702;BME280;36670;50.094;8.496;2024-02-23T01:49:43;98183.41;;;8.99;60.45
50702;BME280;36670;50.094;8.496;2024-02-23T01:52:10;98195.00;;;8.96;60.34
50702;BME280;36670;50.094;8.496;2024-02-23T01:54:36;98196.63;;;8.73;59.77
50702;BME280;36670;50.094;8.496;2024-02-23T01:57:01;98204.50;;;8.60;60.37
50702;BME280;36670;50.094;8.496;2024-02-23T01:59:27;98202.09;;;8.53;60.10
50702;BME280;36670;50.094;8.496;2024-02-23T02:01:53;98216.44;;;8.50;59.14
50702;BME280;36670;50.094;8.496;2024-02-23T02:04:19;98217.69;;;8.29;58.79
50702;BME280;36670;50.094;8.496;2024-02-23T02:06:45;98222.19;;;8.49;58.91
50702;BME280;36670;50.094;8.496;2024-02-23T02:09:11;98234.31;;;8.48;59.19
50702;BME280;36670;50.094;8.496;2024-02-23T02:11:47;98227.13;;;8.52;57.69
50702;BME280;36670;50.094;8.496;2024-02-23T02:14:12;98237.72;;;8.64;58.08
50702;BME280;36670;50.094;8.496;2024-02-23T02:16:38;98238.03;;;8.28;58.65
50702;BME280;36670;50.094;8.496;2024-02-23T02:19:04;98245.88;;;8.45;58.07
50702;BME280;36670;50.094;8.496;2024-02-23T02:21:31;98248.38;;;8.46;57.29
50702;BME280;36670;50.094;8.496;2024-02-23T02:23:56;98251.28;;;8.20;57.79
50702;BME280;36670;50.094;8.496;2024-02-23T02:26:21;98253.53;;;8.18;57.29
50702;BME280;36670;50.094;8.496;2024-02-23T02:28:47;98245.69;;;8.31;57.64
50702;BME280;36670;50.094;8.496;2024-02-23T02:31:12;98252.81;;;8.37;57.72
50702;BME280;36670;50.094;8.496;2024-02-23T02:33:40;98259.06;;;8.43;57.26
50702;BME280;36670;50.094;8.496;2024-02-23T02:36:05;98259.41;;;8.36;57.37
50702;BME280;36670;50.094;8.496;2024-02-23T02:38:31;98263.00;;;7.97;57.43
50702;BME280;36670;50.094;8.496;2024-02-23T02:40:58;98259.25;;;8.22;57.18
50702;BME280;36670;50.094;8.496;2024-02-23T02:43:25;98250.97;;;8.27;57.13
50702;BME280;36670;50.094;8.496;2024-02-23T02:45:50;98252.22;;;8.40;57.02
50702;BME280;36670;50.094;8.496;2024-02-23T02:48:16;98263.91;;;8.27;56.78
50702;BME280;36670;50.094;8.496;2024-02-23T02:50:42;98271.00;;;8.33;57.29
50702;BME280;36670;50.094;8.496;2024-02-23T02:53:07;98275.56;;;8.43;56.96
50702;BME280;36670;50.094;8.496;2024-02-23T02:55:33;98265.75;;;8.36;57.05
50702;BME280;36670;50.094;8.496;2024-02-23T02:57:58;98281.78;;;8.59;57.54
50702;BME280;36670;50.094;8.496;2024-02-23T03:00:24;98287.09;;;8.79;57.11
50702;BME280;36670;50.094;8.496;2024-02-23T03:02:49;98286.25;;;8.84;57.10
50702;BME280;36670;50.094;8.496;2024-02-23T03:05:14;98284.00;;;8.86;56.95
50702;BME280;36670;50.094;8.496;2024-02-23T03:07:40;98299.34;;;8.63;57.10
50702;BME280;36670;50.094;8.496;2024-02-23T03:10:06;98296.69;;;8.52;56.57
50702;BME280;36670;50.094;8.496;2024-02-23T03:12:32;98303.31;;;8.51;57.17
50702;BME280;36670;50.094;8.496;2024-02-23T03:14:57;98300.97;;;8.69;57.00
50702;BME280;36670;50.094;8.496;2024-02-23T03:17:23;98302.47;;;8.56;56.86
50702;BME280;36670;50.094;8.496;2024-02-23T03:19:48;98304.59;;;8.64;57.58
50702;BME280;36670;50.094;8.496;2024-02-23T03:22:15;98306.16;;;8.70;56.99
50702;BME280;36670;50.094;8.496;2024-02-23T03:24:41;98304.59;;;8.64;57.28
50702;BME280;36670;50.094;8.496;2024-02-23T03:27:06;98305.28;;;8.75;56.87
50702;BME280;36670;50.094;8.496;2024-02-23T03:29:32;98304.81;;;8.68;56.42
50702;BME280;36670;50.094;8.496;2024-02-23T03:31:57;98309.97;;;8.75;56.65
50702;BME280;36670;50.094;8.496;2024-02-23T03:34:24;98303.25;;;8.86;56.85
50702;BME280;36670;50.094;8.496;2024-02-23T03:36:49;98298.25;;;8.64;56.57
50702;BME280;36670;50.094;8.496;2024-02-23T03:39:15;98301.19;;;8.38;57.51
50702;BME280;36670;50.094;8.496;2024-02-23T03:41:40;98293.63;;;8.19;57.68
50702;BME280;36670;50.094;8.496;2024-02-23T03:44:06;98296.22;;;8.45;57.57
50702;BME280;36670;50.094;8.496;2024-02-23T03:46:31;98301.13;;;8.43;57.51
50702;BME280;36670;50.094;8.496;2024-02-23T03:48:57;98294.56;;;8.39;57.48
50702;BME280;36670;50.094;8.496;2024-02-23T03:51:22;98299.66;;;8.27;58.22
50702;BME280;36670;50.094;8.496;2024-02-23T03:53:49;98296.13;;;8.16;58.32
50702;BME280;36670;50.094;8.496;2024-02-23T03:56:15;98307.16;;;8.11;58.40
50702;BME280;36670;50.094;8.496;2024-02-23T03:58:41;98305.41;;;7.85;59.11
50702;BME280;36670;50.094;8.496;2024-02-23T04:01:06;98301.16;;;8.03;58.84
50702;BME280;36670;50.094;8.496;2024-02-23T04:03:32;98306.66;;;8.09;58.83
50702;BME280;36670;50.094;8.496;2024-02-23T04:05:58;98311.19;;;8.24;58.80
50702;BME280;36670;50.094;8.496;2024-02-23T04:08:23;98312.31;;;8.23;58.23
50702;BME280;36670;50.094;8.496;2024-02-23T04:10:49;98319.59;;;8.37;58.46
50702;BME280;36670;50.094;8.496;2024-02-23T04:13:14;98316.22;;;8.11;59.05
50702;BME280;36670;50.094;8.496;2024-02-23T04:15:40;98312.94;;;8.09;59.21
50702;BME280;36670;50.094;8.496;2024-02-23T04:18:06;98311.06;;;8.05;59.37
50702;BME280;36670;50.094;8.496;2024-02-23T04:20:31;98319.34;;;7.99;59.91
50702;BME280;36670;50.094;8.496;2024-02-23T04:22:58;98315.13;;;8.12;60.40
50702;BME280;36670;50.094;8.496;2024-02-23T04:25:23;98315.13;;;8.12;60.00
50702;BME280;36670;50.094;8.496;2024-02-23T04:27:49;98322.69;;;8.31;59.39
50702;BME280;36670;50.094;8.496;2024-02-23T04:30:14;98321.91;;;8.25;60.16
50702;BME280;36670;50.094;8.496;2024-02-23T04:32:40;98324.66;;;8.25;59.90
50702;BME280;36670;50.094;8.496;2024-02-23T04:35:05;98316.59;;;7.99;60.39
50702;BME280;36670;50.094;8.496;2024-02-23T04:37:31;98321.66;;;8.22;59.95
50702;BME280;36670;50.094;8.496;2024-02-23T04:39:56;98330.41;;;8.29;59.65
50702;BME280;36670;50.094;8.496;2024-02-23T04:42:22;98315.66;;;8.14;59.72
50702;BME280;36670;50.094;8.496;2024-02-23T04:44:47;98322.16;;;8.29;59.81
50702;BME280;36670;50.094;8.496;2024-02-23T04:47:14;98324.81;;;8.05;59.45
50702;BME280;36670;50.094;8.496;2024-02-23T04:49:40;98326.28;;;7.86;60.17
50702;BME280;36670;50.094;8.496;2024-02-23T04:52:07;98334.84;;;7.75;60.20
50702;BME280;36670;50.094;8.496;2024-02-23T04:54:34;98341.78;;;7.67;60.29
50702;BME280;36670;50.094;8.496;2024-02-23T04:57:00;98352.16;;;7.75;60.80
50702;BME280;36670;50.094;8.496;2024-02-23T04:59:25;98348.31;;;7.76;60.38
50702;BME280;36670;50.094;8.496;2024-02-23T05:01:51;98357.44;;;8.16;59.83
50702;BME280;36670;50.094;8.496;2024-02-23T05:04:16;98353.91;;;8.06;60.34
50702;BME280;36670;50.094;8.496;2024-02-23T05:06:42;98352.88;;;7.96;60.18
50702;BME280;36670;50.094;8.496;2024-02-23T05:09:09;98351.56;;;7.83;60.08
50702;BME280;36670;50.094;8.496;2024-02-23T05:11:34;98359.75;;;7.94;60.18
50702;BME280;36670;50.094;8.496;2024-02-23T05:14:00;98351.84;;;7.82;60.10
50702;BME280;36670;50.094;8.496;2024-02-23T05:16:25;98355.75;;;7.65;60.58
50702;BME280;36670;50.094;8.496;2024-02-23T05:18:51;98361.56;;;7.59;60.56
50702;BME280;36670;50.094;8.496;2024-02-23T05:21:17;98358.28;;;7.57;60.72
50702;BME280;36670;50.094;8.496;2024-02-23T05:23:42;98353.50;;;7.83;60.53
50702;BME280;36670;50.094;8.496;2024-02-23T05:26:08;98360.41;;;7.75;60.07
50702;BME280;36670;50.094;8.496;2024-02-23T05:28:34;98357.59;;;7.91;60.08
50702;BME280;36670;50.094;8.496;2024-02-23T05:31:02;98357.00;;;7.99;60.01
50702;BME280;36670;50.094;8.496;2024-02-23T05:33:28;98355.44;;;7.77;60.19
50702;BME280;36670;50.094;8.496;2024-02-23T05:35:54;98356.03;;;7.69;60.93
50702;BME280;36670;50.094;8.496;2024-02-23T05:38:19;98344.03;;;7.55;60.93
50702;BME280;36670;50.094;8.496;2024-02-23T05:40:45;98351.69;;;7.58;61.12
50702;BME280;36670;50.094;8.496;2024-02-23T05:43:10;98349.50;;;7.55;61.01
50702;BME280;36670;50.094;8.496;2024-02-23T05:45:36;98346.25;;;7.42;61.20
50702;BME280;36670;50.094;8.496;2024-02-23T05:48:02;98344.09;;;7.34;61.82
50702;BME280;36670;50.094;8.496;2024-02-23T05:50:27;98344.59;;;7.51;61.38
50702;BME280;36670;50.094;8.496;2024-02-23T05:52:53;98344.59;;;7.41;61.02
50702;BME280;36670;50.094;8.496;2024-02-23T05:55:19;98345.41;;;7.42;61.75
50702;BME280;36670;50.094;8.496;2024-02-23T05:57:44;98359.19;;;7.31;61.79
50702;BME280;36670;50.094;8.496;2024-02-23T06:00:10;98356.16;;;7.38;61.78
50702;BME280;36670;50.094;8.496;2024-02-23T06:02:36;98340.25;;;7.30;61.33
50702;BME280;36670;50.094;8.496;2024-02-23T06:05:02;98339.63;;;7.48;61.27
50702;BME280;36670;50.094;8.496;2024-02-23T06:07:29;98344.31;;;7.53;61.35
50702;BME280;36670;50.094;8.496;2024-02-23T06:09:57;98348.16;;;7.52;61.14
50702;BME280;36670;50.094;8.496;2024-02-23T06:12:24;98344.75;;;7.76;61.65
50702;BME280;36670;50.094;8.496;2024-02-23T06:14:51;98345.72;;;8.00;60.93
50702;BME280;36670;50.094;8.496;2024-02-23T06:17:16;98341.09;;;7.91;60.70
50702;BME280;36670;50.094;8.496;2024-02-23T06:19:42;98344.53;;;7.62;61.13
50702;BME280;36670;50.094;8.496;2024-02-23T06:22:07;98352.19;;;7.70;61.17
50702;BME280;36670;50.094;8.496;2024-02-23T06:24:35;98358.19;;;7.77;60.92
50702;BME280;36670;50.094;8.496;2024-02-23T06:27:01;98364.69;;;7.92;60.60
50702;BME280;36670;50.094;8.496;2024-02-23T06:29:28;98368.13;;;7.68;61.11
50702;BME280;36670;50.094;8.496;2024-02-23T06:31:54;98379.44;;;7.46;61.50
50702;BME280;36670;50.094;8.496;2024-02-23T06:34:20;98386.25;;;7.69;61.38
50702;BME280;36670;50.094;8.496;2024-02-23T06:36:45;98390.34;;;7.72;61.29
50702;BME280;36670;50.094;8.496;2024-02-23T06:39:11;98395.09;;;7.50;61.75
50702;BME280;36670;50.094;8.496;2024-02-23T06:41:39;98403.06;;;7.57;62.04
50702;BME280;36670;50.094;8.496;2024-02-23T06:44:05;98403.56;;;7.64;61.73
50702;BME280;36670;50.094;8.496;2024-02-23T06:46:30;98395.28;;;7.80;61.39
50702;BME280;36670;50.094;8.496;2024-02-23T06:48:56;98408.28;;;7.48;61.91
50702;BME280;36670;50.094;8.496;2024-02-23T06:51:21;98395.63;;;7.58;61.50
50702;BME280;36670;50.094;8.496;2024-02-23T06:53:50;98402.25;;;7.36;62.69
50702;BME280;36670;50.094;8.496;2024-02-23T06:56:15;98406.13;;;7.30;62.50
50702;BME280;36670;50.094;8.496;2024-02-23T06:58:41;98406.69;;;7.27;62.47
50702;BME280;36670;50.094;8.496;2024-02-23T07:01:06;98409.41;;;7.47;62.35
50702;BME280;36670;50.094;8.496;2024-02-23T07:03:36;98421.16;;;7.63;62.54
50702;BME280;36670;50.094;8.496;2024-02-23T07:06:05;98419.53;;;7.52;62.21
50702;BME280;36670;50.094;8.496;2024-02-23T07:08:31;98418.69;;;7.62;62.20
50702;BME280;36670;50.094;8.496;2024-02-23T07:10:56;98418.34;;;7.74;61.81
50702;BME280;36670;50.094;8.496;2024-02-23T07:13:22;98427.66;;;7.88;62.00
50702;BME280;36670;50.094;8.496;2024-02-23T07:15:48;98424.06;;;7.88;61.58
50702;BME280;36670;50.094;8.496;2024-02-23T07:18:13;98422.34;;;8.07;61.54
50702;BME280;36670;50.094;8.496;2024-02-23T07:20:39;98422.63;;;8.06;60.83
50702;BME280;36670;50.094;8.496;2024-02-23T07:23:05;98433.56;;;8.16;61.19
50702;BME280;36670;50.094;8.496;2024-02-23T07:25:30;98427.88;;;7.97;60.81
50702;BME280;36670;50.094;8.496;2024-02-23T07:27:56;98425.19;;;7.86;60.84
50702;BME280;36670;50.094;8.496;2024-02-23T07:30:21;98423.97;;;8.08;60.55
50702;BME280;36670;50.094;8.496;2024-02-23T07:32:47;98429.16;;;8.20;60.51
50702;BME280;36670;50.094;8.496;2024-02-23T07:35:12;98426.72;;;8.13;60.36
50702;BME280;36670;50.094;8.496;2024-02-23T07:37:39;98432.34;;;8.48;60.77
50702;BME280;36670;50.094;8.496;2024-02-23T07:40:05;98434.56;;;8.35;59.25
50702;BME280;36670;50.094;8.496;2024-02-23T07:42:32;98435.38;;;8.46;59.30
50702;BME280;36670;50.094;8.496;2024-02-23T07:44:58;98437.34;;;8.30;59.12
50702;BME280;36670;50.094;8.496;2024-02-23T07:47:24;98443.56;;;8.51;59.01
50702;BME280;36670;50.094;8.496;2024-02-23T07:49:49;98438.13;;;8.46;58.66
50702;BME280;36670;50.094;8.496;2024-02-23T07:52:14;98439.47;;;8.44;58.41
50702;BME280;36670;50.094;8.496;2024-02-23T07:54:40;98446.88;;;8.53;59.11
50702;BME280;36670;50.094;8.496;2024-02-23T07:57:05;98455.00;;;8.74;58.13
50702;BME280;36670;50.094;8.496;2024-02-23T07:59:31;98462.28;;;8.49;58.44
50702;BME280;36670;50.094;8.496;2024-02-23T08:01:58;98467.78;;;8.54;58.62
50702;BME280;36670;50.094;8.496;2024-02-23T08:04:24;98469.38;;;8.61;58.54
50702;BME280;36670;50.094;8.496;2024-02-23T08:06:49;98460.38;;;8.90;58.25
50702;BME280;36670;50.094;8.496;2024-02-23T08:09:16;98460.31;;;8.60;57.17
50702;BME280;36670;50.094;8.496;2024-02-23T08:11:42;98465.16;;;8.74;57.62
50702;BME280;36670;50.094;8.496;2024-02-23T08:14:07;98469.06;;;8.67;56.99
50702;BME280;36670;50.094;8.496;2024-02-23T08:16:33;98464.88;;;8.75;57.57
50702;BME280;36670;50.094;8.496;2024-02-23T08:18:59;98462.66;;;8.77;57.57
50702;BME280;36670;50.094;8.496;2024-02-23T08:21:25;98463.47;;;8.78;56.69
50702;BME280;36670;50.094;8.496;2024-02-23T08:23:51;98462.59;;;8.87;57.21
50702;BME280;36670;50.094;8.496;2024-02-23T08:26:16;98451.72;;;8.67;57.02
50702;BME280;36670;50.094;8.496;2024-02-23T08:28:42;98461.56;;;8.78;56.40
50702;BME280;36670;50.094;8.496;2024-02-23T08:31:07;98459.97;;;8.67;57.56
50702;BME280;36670;50.094;8.496;2024-02-23T08:33:33;98469.75;;;8.88;56.19
50702;BME280;36670;50.094;8.496;2024-02-23T08:35:58;98467.75;;;8.94;56.33
50702;BME280;36670;50.094;8.496;2024-02-23T08:38:23;98475.69;;;9.01;56.80
50702;BME280;36670;50.094;8.496;2024-02-23T08:40:49;98478.53;;;9.25;56.11
50702;BME280;36670;50.094;8.496;2024-02-23T08:43:15;98473.44;;;9.08;56.16
50702;BME280;36670;50.094;8.496;2024-02-23T08:45:40;98470.94;;;9.12;56.92
50702;BME280;36670;50.094;8.496;2024-02-23T08:48:06;98468.31;;;8.96;57.06
50702;BME280;36670;50.094;8.496;2024-02-23T08:50:32;98471.75;;;8.73;56.71
50702;BME280;36670;50.094;8.496;2024-02-23T08:52:59;98475.50;;;8.92;57.42
50702;BME280;36670;50.094;8.496;2024-02-23T08:55:24;98482.44;;;9.19;56.97
50702;BME280;36670;50.094;8.496;2024-02-23T08:57:50;98482.34;;;9.29;56.06
50702;BME280;36670;50.094;8.496;2024-02-23T09:00:16;98485.47;;;9.17;56.22
50702;BME280;36670;50.094;8.496;2024-02-23T09:02:42;98483.53;;;9.18;56.10
50702;BME280;36670;50.094;8.496;2024-02-23T09:05:08;98494.81;;;9.21;56.13
50702;BME280;36670;50.094;8.496;2024-02-23T09:07:34;98496.38;;;8.98;56.90
50702;BME280;36670;50.094;8.496;2024-02-23T09:09:59;98496.94;;;8.95;56.67
50702;BME280;36670;50.094;8.496;2024-02-23T09:12:25;98494.94;;;9.06;56.59
50702;BME280;36670;50.094;8.496;2024-02-23T09:14:51;98501.59;;;9.34;56.73
50702;BME280;36670;50.094;8.496;2024-02-23T09:17:16;98498.06;;;9.29;57.02
50702;BME280;36670;50.094;8.496;2024-02-23T09:19:43;98487.09;;;9.18;56.72
50702;BME280;36670;50.094;8.496;2024-02-23T09:22:09;98492.34;;;9.20;57.27
50702;BME280;36670;50.094;8.496;2024-02-23T09:24:34;98482.28;;;9.05;56.60
50702;BME280;36670;50.094;8.496;2024-02-23T09:27:00;98481.38;;;9.15;56.35
50702;BME280;36670;50.094;8.496;2024-02-23T09:29:25;98480.91;;;9.37;56.22
50702;BME280;36670;50.094;8.496;2024-02-23T09:31:50;98477.38;;;9.61;56.64
50702;BME280;36670;50.094;8.496;2024-02-23T09:34:16;98468.94;;;9.76;56.47
50702;BME280;36670;50.094;8.496;2024-02-23T09:36:41;98470.28;;;10.03;56.01
50702;BME280;36670;50.094;8.496;2024-02-23T09:39:06;98471.69;;;10.00;55.62
50702;BME280;36670;50.094;8.496;2024-02-23T09:41:32;98476.22;;;10.15;55.34
50702;BME280;36670;50.094;8.496;2024-02-23T09:44:01;98474.41;;;10.05;54.98
50702;BME280;36670;50.094;8.496;2024-02-23T09:46:26;98462.19;;;10.12;54.64
50702;BME280;36670;50.094;8.496;2024-02-23T09:48:53;98455.84;;;10.35;55.16
50702;BME280;36670;50.094;8.496;2024-02-23T09:51:19;98452.41;;;10.44;54.73
50702;BME280;36670;50.094;8.496;2024-02-23T09:53:47;98462.56;;;10.86;54.34
50702;BME280;36670;50.094;8.496;2024-02-23T09:56:14;98458.75;;;10.63;54.59
50702;BME280;36670;50.094;8.496;2024-02-23T09:58:43;98459.19;;;10.89;54.02
50702;BME280;36670;50.094;8.496;2024-02-23T10:01:10;98467.44;;;11.27;54.36
50702;BME280;36670;50.094;8.496;2024-02-23T10:03:37;98461.56;;;11.15;52.97
50702;BME280;36670;50.094;8.496;2024-02-23T10:06:04;98466.81;;;11.31;52.96
50702;BME280;36670;50.094;8.496;2024-02-23T10:08:30;98461.63;;;11.10;52.95
50702;BME280;36670;50.094;8.496;2024-02-23T10:10:55;98463.41;;;11.20;53.07
50702;BME280;36670;50.094;8.496;2024-02-23T10:13:22;98463.91;;;11.08;52.86
50702;BME280;36670;50.094;8.496;2024-02-23T10:15:49;98460.72;;;10.63;52.19
50702;BME280;36670;50.094;8.496;2024-02-23T10:18:14;98460.19;;;10.61;52.57
50702;BME280;36670;50.094;8.496;2024-02-23T10:20:47;98462.69;;;10.38;52.29
50702;BME280;36670;50.094;8.496;2024-02-23T10:23:13;98472.25;;;10.46;52.65
50702;BME280;36670;50.094;8.496;2024-02-23T10:25:39;98467.56;;;10.46;52.55
50702;BME280;36670;50.094;8.496;2024-02-23T10:28:06;98472.66;;;10.34;52.73
50702;BME280;36670;50.094;8.496;2024-02-23T10:30:32;98466.00;;;10.40;53.36
50702;BME280;36670;50.094;8.496;2024-02-23T10:32:59;98458.31;;;10.56;52.40
50702;BME280;36670;50.094;8.496;2024-02-23T10:35:25;98459.88;;;10.81;53.02
50702;BME280;36670;50.094;8.496;2024-02-23T10:37:53;98469.72;;;10.68;52.69
50702;BME280;36670;50.094;8.496;2024-02-23T10:40:20;98472.13;;;10.37;53.43
50702;BME280;36670;50.094;8.496;2024-02-23T10:42:48;98455.94;;;10.68;53.65
50702;BME280;36670;50.094;8.496;2024-02-23T10:45:17;98465.25;;;10.72;52.64
50702;BME280;36670;50.094;8.496;2024-02-23T10:47:44;98460.41;;;10.83;52.71
50702;BME280;36670;50.094;8.496;2024-02-23T10:50:10;98461.88;;;10.95;53.17
50702;BME280;36670;50.094;8.496;2024-02-23T10:52:40;98455.28;;;11.42;52.64
50702;BME280;36670;50.094;8.496;2024-02-23T10:55:08;98442.66;;;11.69;52.87
50702;BME280;36670;50.094;8.496;2024-02-23T10:57:35;98450.16;;;11.97;52.34
50702;BME280;36670;50.094;8.496;2024-02-23T11:00:01;98443.06;;;11.90;50.62
50702;BME280;36670;50.094;8.496;2024-02-23T11:02:32;98452.72;;;12.07;51.38
50702;BME280;36670;50.094;8.496;2024-02-23T11:05:00;98447.69;;;11.95;50.98
50702;BME280;36670;50.094;8.496;2024-02-23T11:07:25;98436.31;;;11.97;50.36
50702;BME280;36670;50.094;8.496;2024-02-23T11:09:53;98434.94;;;11.66;50.36
50702;BME280;36670;50.094;8.496;2024-02-23T11:12:26;98443.84;;;11.63;50.37
50702;BME280;36670;50.094;8.496;2024-02-23T11:14:58;98443.47;;;11.70;51.04
50702;BME280;36670;50.094;8.496;2024-02-23T11:17:30;98436.31;;;11.97;51.02
50702;BME280;36670;50.094;8.496;2024-02-23T11:19:56;98429.41;;;11.66;50.50
50702;BME280;36670;50.094;8.496;2024-02-23T11:22:26;98430.53;;;11.37;51.43
50702;BME280;36670;50.094;8.496;2024-02-23T11:24:52;98432.06;;;11.43;51.26
50702;BME280;36670;50.094;8.496;2024-02-23T11:27:18;98427.91;;;11.88;51.53
50702;BME280;36670;50.094;8.496;2024-02-23T11:29:47;98433.34;;;11.93;50.78
50702;BME280;36670;50.094;8.496;2024-02-23T11:32:16;98429.94;;;11.82;51.15
50702;BME280;36670;50.094;8.496;2024-02-23T11:34:56;98448.41;;;11.26;53.39
50702;BME280;36670;50.094;8.496;2024-02-23T11:37:22;98450.72;;;10.67;55.63
50702;BME280;36670;50.094;8.496;2024-02-23T11:39:48;98449.72;;;9.95;57.37
50702;BME280;36670;50.094;8.496;2024-02-23T11:42:14;98440.69;;;10.33;56.55
50702;BME280;36670;50.094;8.496;2024-02-23T11:44:40;98441.53;;;10.71;57.40
50702;BME280;36670;50.094;8.496;2024-02-23T11:47:07;98432.97;;;11.06;57.18
50702;BME280;36670;50.094;8.496;2024-02-23T11:49:32;98432.06;;;11.43;57.19
50702;BME280;36670;50.094;8.496;2024-02-23T11:51:59;98431.78;;;11.59;56.39
50702;BME280;36670;50.094;8.496;2024-02-23T11:54:25;98428.09;;;11.64;56.06
50702;BME280;36670;50.094;8.496;2024-02-23T11:56:51;98434.03;;;11.71;56.01
50702;BME280;36670;50.094;8.496;2024-02-23T11:59:19;98438.00;;;11.65;55.00
50702;BME280;36670;50.094;8.496;2024-02-23T12:01:46;98431.69;;;11.64;54.88
50702;BME280;36670;50.094;8.496;2024-02-23T12:04:14;98438.47;;;11.72;55.07
50702;BME280;36670;50.094;8.496;2024-02-23T12:06:42;98429.41;;;11.80;54.96
50702;BME280;36670;50.094;8.496;2024-02-23T12:09:09;98435.78;;;11.67;54.75
50702;BME280;36670;50.094;8.496;2024-02-23T12:11:35;98433.19;;;11.56;53.91
50702;BME280;36670;50.094;8.496;2024-02-23T12:14:01;98431.75;;;11.45;54.54
50702;BME280;36670;50.094;8.496;2024-02-23T12:16:33;98431.66;;;11.50;54.06
50702;BME280;36670;50.094;8.496;2024-02-23T12:19:02;98426.47;;;11.16;53.38
50702;BME280;36670;50.094;8.496;2024-02-23T12:21:28;98411.38;;;11.41;53.66
50702;BME280;36670;50.094;8.496;2024-02-23T12:23:54;98428.94;;;11.92;53.63
50702;BME280;36670;50.094;8.496;2024-02-23T12:26:20;98434.97;;;12.22;52.09
50702;BME280;36670;50.094;8.496;2024-02-23T12:28:46;98425.56;;;12.59;51.86
50702;BME280;36670;50.094;8.496;2024-02-23T12:31:12;98433.66;;;12.70;50.19
50702;BME280;36670;50.094;8.496;2024-02-23T12:33:40;98425.06;;;12.57;49.57
50702;BME280;36670;50.094;8.496;2024-02-23T12:36:07;98423.78;;;12.27;48.76
50702;BME280;36670;50.094;8.496;2024-02-23T12:38:33;98433.94;;;12.32;49.40
50702;BME280;36670;50.094;8.496;2024-02-23T12:40:59;98434.06;;;12.26;49.55
50702;BME280;36670;50.094;8.496;2024-02-23T12:43:25;98432.09;;;12.27;49.23
50702;BME280;36670;50.094;8.496;2024-02-23T12:45:52;98422.13;;;12.40;49.68
50702;BME280;36670;50.094;8.496;2024-02-23T12:48:18;98428.69;;;12.44;50.16
50702;BME280;36670;50.094;8.496;2024-02-23T12:50:45;98429.50;;;13.04;50.18
50702;BME280;36670;50.094;8.496;2024-02-23T12:53:30;98422.56;;;12.92;48.37
50702;BME280;36670;50.094;8.496;2024-02-23T12:55:57;98429.94;;;12.74;48.14
50702;BME280;36670;50.094;8.496;2024-02-23T12:58:23;98424.06;;;12.76;47.75
50702;BME280;36670;50.094;8.496;2024-02-23T13:00:48;98429.84;;;12.29;47.32